1854 Hurricane NOT_NAMED (1854287N18296)


IBTrACS version v04r00. Visit IBTrACS website for data access.
Please direct all questions to the IBTrACS Q and A forum

Storm track - Intensity - Wind Radii - Intensity Data - Source Data - All data

Summary Information

Storm ID 1854287N18296
Start Oct 13 12Z
Max Intensity 90 kt (Oct 22 06Z), 965 mb (Oct 22 06Z)
End Oct 27 12Z
ATCF IDs
Track status Best track data.

Storm track plot

Map of storm track

Intensity plots

Map of storm track

Radial wind information

No radial wind information for this storm


Position and Intensity Table

BASIN ISO_TIME_________ NATURE LAT LON MLC WIND MLC PRES
degrees north degrees east kts mb
NA 1854-10-13 12:00:00 TS 17.50 -64.30 35
NA 15:00:00 TS 17.49 -64.35 35
NA 18:00:00 TS 17.50 -64.40 35
NA 21:00:00 TS 17.55 -64.45 35
NA 1854-10-14 00:00:00 TS 17.60 -64.50 35
NA 03:00:00 TS 17.60 -64.56 35
NA 06:00:00 TS 17.60 -64.60 35
NA 09:00:00 TS 17.64 -64.60 35
NA 12:00:00 TS 17.70 -64.60 35
NA 15:00:00 TS 17.75 -64.64 35
NA 18:00:00 TS 17.80 -64.70 35
NA 21:00:00 TS 17.86 -64.75 35
NA 1854-10-15 00:00:00 TS 17.90 -64.80 35
NA 03:00:00 TS 17.90 -64.86 35
NA 06:00:00 TS 17.90 -64.90 35
NA 09:00:00 TS 17.94 -64.90 37
NA 12:00:00 TS 18.00 -64.90 40
NA 15:00:00 TS 18.05 -64.95 40
NA 18:00:00 TS 18.10 -65.00 40
NA 21:00:00 TS 18.15 -65.00 40
NA 1854-10-16 00:00:00 TS 18.20 -65.00 40
NA 03:00:00 TS 18.25 -65.04 40
NA 06:00:00 TS 18.30 -65.10 40
NA 09:00:00 TS 18.36 -65.15 40
NA 12:00:00 TS 18.40 -65.20 40
NA 15:00:00 TS 18.40 -65.25 40
NA 18:00:00 TS 18.40 -65.30 40
NA 21:00:00 TS 18.44 -65.35 40
NA 1854-10-17 00:00:00 TS 18.50 -65.40 40
NA 03:00:00 TS 18.55 -65.46 40
NA 06:00:00 TS 18.60 -65.50 40
NA 09:00:00 TS 18.63 -65.50 42
NA 12:00:00 TS 18.70 -65.50 45
NA 15:00:00 TS 18.84 -65.54 45
NA 18:00:00 TS 19.00 -65.60 45
NA 21:00:00 TS 19.14 -65.66 45
NA 1854-10-18 00:00:00 TS 19.30 -65.70 45
NA 03:00:00 TS 19.50 -65.70 45
NA 06:00:00 TS 19.70 -65.70 45
NA 09:00:00 TS 19.83 -65.75 47
NA 12:00:00 TS 20.00 -65.80 50
NA 15:00:00 TS 20.33 -65.81 50
NA 18:00:00 TS 20.70 -65.80 50
NA 21:00:00 TS 21.00 -65.80 50
NA 1854-10-19 00:00:00 TS 21.30 -65.80 50
NA 03:00:00 TS 21.64 -65.80 50
NA 06:00:00 TS 22.00 -65.80 50
NA 09:00:00 TS 22.34 -65.80 55
NA 12:00:00 TS 22.70 -65.80 60
NA 15:00:00 TS 23.10 -65.80 60
NA 18:00:00 TS 23.50 -65.80 60
NA 21:00:00 TS 23.85 -65.80 60
NA 1854-10-20 00:00:00 TS 24.20 -65.80 60
NA 03:00:00 TS 24.60 -65.80 60
NA 06:00:00 TS 25.00 -65.80 60
NA 09:00:00 TS 25.33 -65.81 60
NA 12:00:00 TS 25.70 -65.80 60
NA 15:00:00 TS 26.19 -65.76 62
NA 18:00:00 TS 26.70 -65.70 65
NA 21:00:00 TS 27.15 -65.64 67
NA 1854-10-21 00:00:00 TS 27.60 -65.60 70
NA 03:00:00 TS 28.10 -65.60 72
NA 06:00:00 TS 28.60 -65.60 75
NA 09:00:00 TS 29.06 -65.56 75
NA 12:00:00 TS 29.50 -65.50 75
NA 15:00:00 TS 29.90 -65.45 77
NA 18:00:00 TS 30.30 -65.40 80
NA 21:00:00 TS 30.75 -65.36 82
NA 1854-10-22 00:00:00 TS 31.20 -65.30 85
NA 03:00:00 TS 31.61 -65.21 87
NA 06:00:00 TS 32.00 -65.10 90 965
NA 09:00:00 TS 32.41 -65.01 90
NA 12:00:00 TS 32.80 -64.90 90
NA 15:00:00 TS 33.16 -64.76 90
NA 18:00:00 TS 33.50 -64.60 90
NA 21:00:00 TS 33.86 -64.45 90
NA 1854-10-23 00:00:00 TS 34.20 -64.30 90
NA 03:00:00 TS 34.50 -64.15 90
NA 06:00:00 TS 34.80 -64.00 90
NA 09:00:00 TS 35.12 -63.92 87
NA 12:00:00 TS 35.50 -63.70 85
NA 15:00:00 TS 35.99 -63.13 82
NA 18:00:00 TS 36.50 -62.40 80
NA 21:00:00 TS 36.96 -61.75 77
NA 1854-10-24 00:00:00 TS 37.40 -61.10 75
NA 03:00:00 TS 37.84 -60.45 72
NA 06:00:00 TS 38.30 -59.80 70
NA 09:00:00 TS 38.81 -59.19 67
NA 12:00:00 TS 39.30 -58.50 65
NA 15:00:00 TS 39.67 -57.63 62
NA 18:00:00 TS 40.00 -56.70 60
NA 21:00:00 TS 40.35 -55.84 60
NA 1854-10-25 00:00:00 TS 40.70 -55.00 60
NA 03:00:00 TS 41.06 -54.16 55
NA 06:00:00 TS 41.40 -53.30 50
NA 09:00:00 TS 41.69 -52.46 50
NA 12:00:00 TS 42.00 -51.50 50
NA 15:00:00 TS 42.39 -50.26 50
NA 18:00:00 TS 42.80 -48.90 50
NA 21:00:00 TS 43.15 -47.45 50
NA 1854-10-26 00:00:00 TS 43.50 -46.30 50
NA 03:00:00 TS 43.90 -45.85 47
NA 06:00:00 TS 44.30 -45.70 45
NA 09:00:00 TS 44.63 -45.43 45
NA 12:00:00 TS 45.00 -45.00 45
NA 15:00:00 TS 45.48 -44.23 45
NA 18:00:00 ET 46.00 -43.30 45
NA 21:00:00 ET 46.50 -42.40 45
NA 1854-10-27 00:00:00 ET 47.00 -41.50 45
NA 03:00:00 ET 47.50 -40.65 45
NA 06:00:00 ET 48.00 -39.80 45
NA 09:00:00 ET 48.50 -38.92 45
NA 12:00:00 ET 49.00 -38.00 45

Source Information

Agency Information
USA
TOKYO
CMA
HKO
NEWDELHI
REUNION
BOM
NADI
WELLINGTON
DS824
TD9636
TD9635
NEUMANN
MLC

All available IBTrACS Data

SEASON BASIN SUBBASIN ISO_TIME_________ NATURE LAT LON DIST2LAND LANDFALL IFLAG USA SSHS MLC LAT MLC LON MLC CLASS MLC WIND MLC PRES STORM SPEED STORM DIR
Year degrees north degrees east km km 1 degrees north degrees east kts mb kts degrees
1854 NA CS 1854-10-13 12:00:00 TS 17.50 -64.30 158 158 _____________O -1 17.50 -64.30 TS 35 1 252
1854 NA CS 15:00:00 TS 17.49 -64.35 149 149 _____________P -1 17.49 -64.35 TS 35 1 270
1854 NA CS 18:00:00 TS 17.50 -64.40 149 149 _____________O -1 17.50 -64.40 TS 35 1 304
1854 NA CS 21:00:00 TS 17.55 -64.45 143 134 _____________P -1 17.55 -64.45 TS 35 1 317
1854 NA CS 1854-10-14 00:00:00 TS 17.60 -64.50 134 125 _____________O -1 17.60 -64.50 TS 35 1 295
1854 NA CS 03:00:00 TS 17.60 -64.56 125 125 _____________P -1 17.60 -64.56 TS 35 1 270
1854 NA CS 06:00:00 TS 17.60 -64.60 125 125 _____________O -1 17.60 -64.60 TS 35 1 319
1854 NA CS 09:00:00 TS 17.64 -64.60 125 119 _____________P -1 17.64 -64.60 TS 35 1 0
1854 NA CS 12:00:00 TS 17.70 -64.60 119 119 _____________O -1 17.70 -64.60 TS 35 1 344
1854 NA CS 15:00:00 TS 17.75 -64.64 114 105 _____________P -1 17.75 -64.64 TS 35 1 317
1854 NA CS 18:00:00 TS 17.80 -64.70 105 100 _____________O -1 17.80 -64.70 TS 35 1 317
1854 NA CS 21:00:00 TS 17.86 -64.75 100 91 _____________P -1 17.86 -64.75 TS 35 1 317
1854 NA CS 1854-10-15 00:00:00 TS 17.90 -64.80 91 81 _____________O -1 17.90 -64.80 TS 35 1 292
1854 NA CS 03:00:00 TS 17.90 -64.86 81 81 _____________P -1 17.90 -64.86 TS 35 1 270
1854 NA CS 06:00:00 TS 17.90 -64.90 81 81 _____________O -1 17.90 -64.90 TS 35 1 319
1854 NA CS 09:00:00 TS 17.94 -64.90 81 77 _____________P -1 17.94 -64.90 TS 37 1 0
1854 NA CS 12:00:00 TS 18.00 -64.90 77 77 _____________O -1 18.00 -64.90 TS 40 1 344
1854 NA CS 15:00:00 TS 18.05 -64.95 74 64 _____________P -1 18.05 -64.95 TS 40 1 317
1854 NA CS 18:00:00 TS 18.10 -65.00 64 64 _____________O -1 18.10 -65.00 TS 40 1 343
1854 NA CS 21:00:00 TS 18.15 -65.00 63 63 _____________P -1 18.15 -65.00 TS 40 1 0
1854 NA CS 1854-10-16 00:00:00 TS 18.20 -65.00 63 63 _____________O -1 18.20 -65.00 TS 40 1 343
1854 NA CS 03:00:00 TS 18.25 -65.04 63 52 _____________P -1 18.25 -65.04 TS 40 1 317
1854 NA CS 06:00:00 TS 18.30 -65.10 52 52 _____________O -1 18.30 -65.10 TS 40 1 317
1854 NA CS 09:00:00 TS 18.36 -65.15 52 42 _____________P -1 18.36 -65.15 TS 40 1 317
1854 NA CS 12:00:00 TS 18.40 -65.20 42 42 _____________O -1 18.40 -65.20 TS 40 1 294
1854 NA CS 15:00:00 TS 18.40 -65.25 31 31 _____________P -1 18.40 -65.25 TS 40 1 270
1854 NA CS 18:00:00 TS 18.40 -65.30 31 31 _____________O -1 18.40 -65.30 TS 40 1 294
1854 NA CS 21:00:00 TS 18.44 -65.35 31 21 _____________P -1 18.44 -65.35 TS 40 1 317
1854 NA CS 1854-10-17 00:00:00 TS 18.50 -65.40 23 15 _____________O -1 18.50 -65.40 TS 40 1 317
1854 NA CS 03:00:00 TS 18.55 -65.46 24 24 _____________P -1 18.55 -65.46 TS 40 1 317
1854 NA CS 06:00:00 TS 18.60 -65.50 24 24 _____________O -1 18.60 -65.50 TS 40 1 331
1854 NA CS 09:00:00 TS 18.63 -65.50 24 24 _____________P -1 18.63 -65.50 TS 42 1 0
1854 NA CS 12:00:00 TS 18.70 -65.50 35 35 _____________O -1 18.70 -65.50 TS 45 2 347
1854 NA CS 15:00:00 TS 18.84 -65.54 45 45 _____________P -1 18.84 -65.54 TS 45 3 343
1854 NA NA 18:00:00 TS 19.00 -65.60 67 67 _____________O -1 19.00 -65.60 TS 45 3 340
1854 NA NA 21:00:00 TS 19.14 -65.66 78 78 _____________P -1 19.14 -65.66 TS 45 3 343
1854 NA NA 1854-10-18 00:00:00 TS 19.30 -65.70 100 100 _____________O -1 19.30 -65.70 TS 45 4 353
1854 NA NA 03:00:00 TS 19.50 -65.70 123 123 _____________P -1 19.50 -65.70 TS 45 4 0
1854 NA NA 06:00:00 TS 19.70 -65.70 145 145 _____________O -1 19.70 -65.70 TS 45 3 352
1854 NA NA 09:00:00 TS 19.83 -65.75 156 156 _____________P -1 19.83 -65.75 TS 47 3 343
1854 NA NA 12:00:00 TS 20.00 -65.80 178 178 _____________O -1 20.00 -65.80 TS 50 5 353
1854 NA NA 15:00:00 TS 20.33 -65.81 212 212 _____________P -1 20.33 -65.81 TS 50 7 0
1854 NA NA 18:00:00 TS 20.70 -65.80 257 257 _____________O -1 20.70 -65.80 TS 50 7 1
1854 NA NA 21:00:00 TS 21.00 -65.80 290 290 _____________P -1 21.00 -65.80 TS 50 6 1
1854 NA NA 1854-10-19 00:00:00 TS 21.30 -65.80 324 324 _____________O -1 21.30 -65.80 TS 50 6 2
1854 NA NA 03:00:00 TS 21.64 -65.80 357 357 _____________P -1 21.64 -65.80 TS 50 7 0
1854 NA NA 06:00:00 TS 22.00 -65.80 402 402 _____________O -1 22.00 -65.80 TS 50 7 0
1854 NA NA 09:00:00 TS 22.34 -65.80 436 436 _____________P -1 22.34 -65.80 TS 55 7 0
1854 NA NA 12:00:00 TS 22.70 -65.80 480 480 _____________O -1 22.70 -65.80 TS 60 8 2
1854 NA NA 15:00:00 TS 23.10 -65.80 525 525 _____________P -1 23.10 -65.80 TS 60 8 1
1854 NA NA 18:00:00 TS 23.50 -65.80 570 570 _____________O -1 23.50 -65.80 TS 60 8 0
1854 NA NA 21:00:00 TS 23.85 -65.80 615 603 _____________P -1 23.85 -65.80 TS 60 7 0
1854 NA NA 1854-10-20 00:00:00 TS 24.20 -65.80 648 648 _____________O -1 24.20 -65.80 TS 60 8 0
1854 NA NA 03:00:00 TS 24.60 -65.80 693 693 _____________P -1 24.60 -65.80 TS 60 8 1
1854 NA NA 06:00:00 TS 25.00 -65.80 731 731 _____________O -1 25.00 -65.80 TS 60 7 0
1854 NA NA 09:00:00 TS 25.33 -65.81 761 761 _____________P -1 25.33 -65.81 TS 60 7 0
1854 NA NA 12:00:00 TS 25.70 -65.80 800 800 _____________O -1 25.70 -65.80 TS 60 9 3
1854 NA NA 15:00:00 TS 26.19 -65.76 850 850 _____________P -1 26.19 -65.76 TS 62 10 5
1854 NA NA 18:00:00 TS 26.70 -65.70 905 905 _____________O -1 26.70 -65.70 HU 65 10 6
1854 NA NA 21:00:00 TS 27.15 -65.64 960 950 _____________P -1 27.15 -65.64 HU 67 9 5
1854 NA NA 1854-10-21 00:00:00 TS 27.60 -65.60 999 999 _____________O -1 27.60 -65.60 HU 70 10 3
1854 NA NA 03:00:00 TS 28.10 -65.60 1049 1049 _____________P -1 28.10 -65.60 HU 72 10 1
1854 NA NA 06:00:00 TS 28.60 -65.60 1100 1100 _____________O -1 28.60 -65.60 HU 75 10 2
1854 NA NA 09:00:00 TS 29.06 -65.56 1150 1150 _____________P -1 29.06 -65.56 HU 75 9 5
1854 NA NA 12:00:00 TS 29.50 -65.50 1168 1140 _____________O -1 29.50 -65.50 HU 75 8 6
1854 NA NA 15:00:00 TS 29.90 -65.45 1147 1121 _____________P -1 29.90 -65.45 HU 77 8 6
1854 NA NA 18:00:00 TS 30.30 -65.40 1121 1095 _____________O -1 30.30 -65.40 HU 80 9 6
1854 NA NA 21:00:00 TS 30.75 -65.36 1095 1073 _____________P -1 30.75 -65.36 HU 82 9 5
1854 NA NA 1854-10-22 00:00:00 TS 31.20 -65.30 1073 1059 _____________O -1 31.20 -65.30 HU 85 9 8
1854 NA NA 03:00:00 TS 31.61 -65.21 1059 1046 _____________P -1 31.61 -65.21 HU 87 8 12
1854 NA NA 06:00:00 TS 32.00 -65.10 1046 1035 _____________O -1 32.00 -65.10 HU 90 965 8 12
1854 NA NA 09:00:00 TS 32.41 -65.01 1035 1026 _____________P -1 32.41 -65.01 HU 90 8 12
1854 NA NA 12:00:00 TS 32.80 -64.90 1026 1022 _____________O -1 32.80 -64.90 HU 90 8 15
1854 NA NA 15:00:00 TS 33.16 -64.76 1019 1019 _____________P -1 33.16 -64.76 HU 90 7 20
1854 NA NA 18:00:00 TS 33.50 -64.60 1026 1002 _____________O -1 33.50 -64.60 HU 90 7 20
1854 NA NA 21:00:00 TS 33.86 -64.45 997 972 _____________P -1 33.86 -64.45 HU 90 7 20
1854 NA NA 1854-10-23 00:00:00 TS 34.20 -64.30 972 947 _____________O -1 34.20 -64.30 HU 90 7 21
1854 NA NA 03:00:00 TS 34.50 -64.15 952 928 _____________P -1 34.50 -64.15 HU 90 7 22
1854 NA NA 06:00:00 TS 34.80 -64.00 928 905 _____________O -1 34.80 -64.00 HU 90 6 17
1854 NA NA 09:00:00 TS 35.12 -63.92 905 879 _____________P -1 35.12 -63.92 HU 87 7 19
1854 NA NA 12:00:00 TS 35.50 -63.70 879 853 _____________O -1 35.50 -63.70 HU 85 11 37
1854 NA NA 15:00:00 TS 35.99 -63.13 855 816 _____________P -1 35.99 -63.13 HU 82 15 46
1854 NA NA 18:00:00 TS 36.50 -62.40 816 788 _____________O -1 36.50 -62.40 HU 80 15 49
1854 NA NA 21:00:00 TS 36.96 -61.75 784 761 _____________P -1 36.96 -61.75 HU 77 14 49
1854 NA NA 1854-10-24 00:00:00 TS 37.40 -61.10 765 747 _____________O -1 37.40 -61.10 HU 75 14 49
1854 NA NA 03:00:00 TS 37.84 -60.45 756 738 _____________P -1 37.84 -60.45 HU 72 14 49
1854 NA NA 06:00:00 TS 38.30 -59.80 739 717 _____________O -1 38.30 -59.80 HU 70 14 46
1854 NA NA 09:00:00 TS 38.81 -59.19 720 687 _____________P -1 38.81 -59.19 HU 67 14 45
1854 NA NA 12:00:00 TS 39.30 -58.50 689 671 _____________O -1 39.30 -58.50 HU 65 15 55
1854 NA NA 15:00:00 TS 39.67 -57.63 675 672 _____________P -1 39.67 -57.63 HU 62 16 63
1854 NA NA 18:00:00 TS 40.00 -56.70 680 675 _____________O -1 40.00 -56.70 TS 60 15 64
1854 NA NA 21:00:00 TS 40.35 -55.84 694 665 _____________P -1 40.35 -55.84 TS 60 15 62
1854 NA NA 1854-10-25 00:00:00 TS 40.70 -55.00 665 624 _____________O -1 40.70 -55.00 TS 60 15 61
1854 NA NA 03:00:00 TS 41.06 -54.16 613 578 _____________P -1 41.06 -54.16 TS 55 15 61
1854 NA NA 06:00:00 TS 41.40 -53.30 578 546 _____________O -1 41.40 -53.30 TS 50 14 63
1854 NA NA 09:00:00 TS 41.69 -52.46 547 526 _____________P -1 41.69 -52.46 TS 50 15 66
1854 NA NA 12:00:00 TS 42.00 -51.50 528 517 _____________O -1 42.00 -51.50 TS 50 18 67
1854 NA NA 15:00:00 TS 42.39 -50.26 519 519 _____________P -1 42.39 -50.26 TS 50 21 67
1854 NA NA 18:00:00 TS 42.80 -48.90 541 541 _____________O -1 42.80 -48.90 TS 50 22 70
1854 NA NA 21:00:00 TS 43.15 -47.45 585 585 _____________P -1 43.15 -47.45 TS 50 20 70
1854 NA NA 1854-10-26 00:00:00 TS 43.50 -46.30 638 638 _____________O -1 43.50 -46.30 TS 50 14 57
1854 NA NA 03:00:00 TS 43.90 -45.85 639 630 _____________P -1 43.90 -45.85 TS 47 9 28
1854 NA NA 06:00:00 TS 44.30 -45.70 630 625 _____________O -1 44.30 -45.70 TS 45 8 22
1854 NA NA 09:00:00 TS 44.63 -45.43 636 631 _____________P -1 44.63 -45.43 TS 45 9 35
1854 NA NA 12:00:00 TS 45.00 -45.00 644 644 _____________O -1 45.00 -45.00 TS 45 12 45
1854 NA NA 15:00:00 TS 45.48 -44.23 677 677 _____________P -1 45.48 -44.23 TS 45 16 50
1854 NA NA 18:00:00 ET 46.00 -43.30 724 724 _____________O -1 46.00 -43.30 EX 45 16 51
1854 NA NA 21:00:00 ET 46.50 -42.40 777 777 _____________P -1 46.50 -42.40 EX 45 16 51
1854 NA NA 1854-10-27 00:00:00 ET 47.00 -41.50 835 835 _____________O -1 47.00 -41.50 EX 45 16 50
1854 NA NA 03:00:00 ET 47.50 -40.65 896 895 _____________P -1 47.50 -40.65 EX 45 15 49
1854 NA NA 06:00:00 ET 48.00 -39.80 953 953 _____________O -1 48.00 -39.80 EX 45 15 49
1854 NA NA 09:00:00 ET 48.50 -38.92 1019 1019 _____________P -1 48.50 -38.92 EX 45 16 50
1854 NA NA 12:00:00 ET 49.00 -38.00 1087 _____________O -1 49.00 -38.00 EX 45 16 50